createdAt,value
2022-08-17T00:02:01.463Z,97705.75
2022-08-17T00:04:57.354Z,97712.81
2022-08-17T00:07:45.773Z,97709.16
2022-08-17T00:10:34.841Z,97702.31
2022-08-17T00:13:27.662Z,97709.13
2022-08-17T00:16:23.223Z,97703.56
2022-08-17T00:19:33.019Z,97693.09
2022-08-17T00:22:34.758Z,97699.47
2022-08-17T00:25:23.873Z,97694.66
2022-08-17T00:28:14.264Z,97689.97
2022-08-17T00:31:02.764Z,97686.22
2022-08-17T00:33:52.648Z,97695.78
2022-08-17T00:36:41.000Z,97698.22
2022-08-17T00:39:29.502Z,97701.75
2022-08-17T00:42:19.611Z,97697.25
2022-08-17T00:45:10.149Z,97698.00
2022-08-17T00:47:58.526Z,97700.28
2022-08-17T00:50:57.601Z,97695.75
2022-08-17T00:53:52.506Z,97700.97
2022-08-17T00:56:44.115Z,97707.53
2022-08-17T00:59:37.579Z,97702.25
2022-08-17T01:02:26.476Z,97703.75
2022-08-17T01:05:19.525Z,97701.84
2022-08-17T01:08:13.546Z,97696.72
2022-08-17T01:11:02.823Z,97694.44
2022-08-17T01:13:51.466Z,97688.66
2022-08-17T01:16:40.548Z,97695.78
2022-08-17T01:19:31.803Z,97686.34
2022-08-17T01:22:25.745Z,97688.53
2022-08-17T01:25:14.788Z,97686.66
2022-08-17T01:28:03.900Z,97686.75
2022-08-17T01:30:59.004Z,97684.53
2022-08-17T01:33:47.907Z,97696.09
2022-08-17T01:36:36.569Z,97694.41
2022-08-17T01:39:31.349Z,97685.34
2022-08-17T01:42:23.758Z,97685.56
2022-08-17T01:45:15.394Z,97688.16
2022-08-17T01:48:03.984Z,97691.06
2022-08-17T01:50:53.359Z,97680.34
2022-08-17T01:53:48.512Z,97685.50
2022-08-17T01:56:41.610Z,97679.28
2022-08-17T01:59:30.838Z,97686.78
2022-08-17T02:02:31.044Z,97692.03
2022-08-17T02:05:19.977Z,97689.59
2022-08-17T02:08:08.959Z,97698.06
2022-08-17T02:11:12.041Z,97699.47
2022-08-17T02:14:03.176Z,97702.84
2022-08-17T02:16:53.061Z,97709.00
2022-08-17T02:19:41.990Z,97696.34
2022-08-17T02:22:31.156Z,97700.78
2022-08-17T02:25:21.748Z,97697.09
2022-08-17T02:28:12.978Z,97707.75
2022-08-17T02:31:07.792Z,97709.78
2022-08-17T02:34:00.567Z,97717.34
2022-08-17T02:36:54.200Z,97721.69
2022-08-17T02:39:42.565Z,97702.22
2022-08-17T02:42:34.676Z,97713.97
2022-08-17T02:45:25.579Z,97716.13
2022-08-17T02:48:15.369Z,97727.28
2022-08-17T02:51:19.160Z,97729.53
2022-08-17T02:54:41.233Z,97718.78
2022-08-17T02:57:16.131Z,97713.22
2022-08-17T03:00:06.055Z,97705.84
2022-08-17T03:02:54.848Z,97707.31
2022-08-17T03:05:44.719Z,97710.13
2022-08-17T03:08:33.195Z,97708.44
2022-08-17T03:11:22.127Z,97697.06
2022-08-17T03:14:10.581Z,97690.13
2022-08-17T03:16:59.262Z,97696.16
2022-08-17T03:19:47.788Z,97708.69
2022-08-17T03:22:40.042Z,97705.84
2022-08-17T03:25:30.861Z,97706.72
2022-08-17T03:28:19.230Z,97696.44
2022-08-17T03:31:08.499Z,97711.91
2022-08-17T03:33:57.705Z,97702.81
2022-08-17T03:36:47.441Z,97708.56
2022-08-17T03:39:37.264Z,97715.19
2022-08-17T03:42:31.377Z,97708.47
2022-08-17T03:45:44.385Z,97713.72
2022-08-17T03:48:50.356Z,97717.44
2022-08-17T03:51:55.450Z,97725.06
2022-08-17T03:55:03.682Z,97723.56
2022-08-17T03:57:52.045Z,97732.56
2022-08-17T04:00:45.793Z,97727.06
2022-08-17T04:03:34.275Z,97736.94
2022-08-17T04:06:23.011Z,97741.06
2022-08-17T04:09:12.987Z,97742.22
2022-08-17T04:12:04.803Z,97750.53
2022-08-17T04:14:55.009Z,97746.41
2022-08-17T04:17:44.657Z,97750.22
2022-08-17T04:20:33.273Z,97740.00
2022-08-17T04:23:21.768Z,97739.38
2022-08-17T04:26:10.896Z,97741.09
2022-08-17T04:29:21.472Z,97740.84
2022-08-17T04:32:10.293Z,97736.31
2022-08-17T04:34:59.148Z,97743.56
2022-08-17T04:37:47.646Z,97737.84
2022-08-17T04:40:54.104Z,97746.69
2022-08-17T04:43:43.885Z,97737.19
2022-08-17T04:46:35.779Z,97746.22
2022-08-17T04:49:24.197Z,97750.28
2022-08-17T04:52:29.655Z,97762.78
2022-08-17T04:55:21.330Z,97748.47
2022-08-17T04:58:10.239Z,97751.81
2022-08-17T05:00:58.629Z,97761.03
2022-08-17T05:03:48.738Z,97757.19
2022-08-17T05:06:37.336Z,97755.97
2022-08-17T05:09:25.751Z,97755.13
2022-08-17T05:12:14.162Z,97752.19
2022-08-17T05:15:02.748Z,97758.75
2022-08-17T05:17:51.148Z,97758.13
2022-08-17T05:20:42.590Z,97755.31
2022-08-17T05:23:34.983Z,97772.00
2022-08-17T05:26:31.698Z,97765.44
2022-08-17T05:29:35.159Z,97762.97
2022-08-17T05:32:39.144Z,97769.72
2022-08-17T05:35:31.516Z,97772.16
2022-08-17T05:38:23.232Z,97772.47
2022-08-17T05:41:11.965Z,97777.94
2022-08-17T05:44:00.318Z,97775.31
2022-08-17T05:46:54.426Z,97777.38
2022-08-17T05:49:43.023Z,97783.59
2022-08-17T05:52:37.513Z,97785.81
2022-08-17T05:55:32.855Z,97772.91
2022-08-17T05:58:26.501Z,97784.09
2022-08-17T06:01:31.830Z,97780.50
2022-08-17T06:04:32.021Z,97784.44
2022-08-17T06:07:26.885Z,97785.56
2022-08-17T06:10:22.195Z,97783.31
2022-08-17T06:13:19.911Z,97781.50
2022-08-17T06:16:28.210Z,97785.44
2022-08-17T06:19:28.811Z,97782.97
2022-08-17T06:22:21.665Z,97795.53
2022-08-17T06:25:16.695Z,97792.75
2022-08-17T06:28:09.735Z,97787.03
2022-08-17T06:31:09.352Z,97789.66
2022-08-17T06:33:59.780Z,97788.06
2022-08-17T06:36:53.162Z,97802.31
2022-08-17T06:39:54.860Z,97796.06
2022-08-17T06:43:06.429Z,97805.88
2022-08-17T06:46:04.132Z,97804.03
2022-08-17T06:49:07.591Z,97803.06
2022-08-17T06:52:02.059Z,97802.97
2022-08-17T06:54:58.085Z,97800.84
2022-08-17T06:57:50.684Z,97801.34
2022-08-17T07:00:43.677Z,97804.22
2022-08-17T07:03:38.016Z,97811.25
2022-08-17T07:06:34.074Z,97814.38
2022-08-17T07:09:30.600Z,97812.41
2022-08-17T07:12:23.243Z,97824.53
2022-08-17T07:15:14.819Z,97818.34
2022-08-17T07:18:03.950Z,97819.63
2022-08-17T07:20:58.067Z,97821.13
2022-08-17T07:24:02.088Z,97819.22
2022-08-17T07:27:05.064Z,97824.88
2022-08-17T07:29:58.233Z,97822.03
2022-08-17T07:32:50.877Z,97818.66
2022-08-17T07:35:43.899Z,97816.44
2022-08-17T07:38:34.595Z,97817.16
2022-08-17T07:41:25.125Z,97820.59
2022-08-17T07:44:17.926Z,97815.53
2022-08-17T07:47:45.092Z,97813.72
2022-08-17T07:50:34.820Z,97803.63
2022-08-17T07:53:25.663Z,97819.38
2022-08-17T07:56:39.153Z,97809.72
2022-08-17T07:59:33.775Z,97810.75
2022-08-17T08:02:31.907Z,97808.28
2022-08-17T08:05:50.266Z,97815.53
2022-08-17T08:08:38.707Z,97814.97
2022-08-17T08:11:32.486Z,97822.59
2022-08-17T08:14:29.449Z,97807.09
2022-08-17T08:17:25.253Z,97815.59
2022-08-17T08:20:51.407Z,97811.38
2022-08-17T08:23:36.153Z,97805.13
2022-08-17T08:26:34.310Z,97812.09
2022-08-17T08:29:31.548Z,97816.88
2022-08-17T08:32:28.133Z,97816.81
2022-08-17T08:35:26.917Z,97816.28
2022-08-17T08:38:25.600Z,97809.88
2022-08-17T08:41:30.846Z,97812.34
2022-08-17T08:45:00.585Z,97801.25
2022-08-17T08:48:12.839Z,97807.66
2022-08-17T08:51:27.953Z,97810.34
2022-08-17T08:54:28.641Z,97809.59
2022-08-17T08:57:26.923Z,97814.56
2022-08-17T09:00:22.674Z,97813.06
2022-08-17T09:03:50.908Z,97810.88
2022-08-17T09:06:52.274Z,97810.13
2022-08-17T09:09:53.369Z,97811.47
2022-08-17T09:12:56.016Z,97798.22
2022-08-17T09:15:49.458Z,97806.53
2022-08-17T09:18:59.956Z,97808.97
2022-08-17T09:21:54.627Z,97813.81
2022-08-17T09:24:48.275Z,97819.69
2022-08-17T09:27:47.889Z,97809.75
2022-08-17T09:30:42.281Z,97810.47
2022-08-17T09:33:38.148Z,97806.69
2022-08-17T09:36:31.263Z,97810.59
2022-08-17T09:39:29.766Z,97806.25
2022-08-17T09:42:25.079Z,97814.53
2022-08-17T09:45:26.423Z,97824.94
2022-08-17T09:48:20.091Z,97830.34
2022-08-17T09:51:19.084Z,97811.75
2022-08-17T09:54:38.232Z,97814.06
2022-08-17T09:57:50.322Z,97812.91
2022-08-17T10:00:50.459Z,97806.91
2022-08-17T10:04:05.069Z,97829.13
2022-08-17T10:07:01.959Z,97816.88
2022-08-17T10:10:01.089Z,97827.16
2022-08-17T10:12:57.963Z,97824.69
2022-08-17T10:15:55.054Z,97811.81
2022-08-17T10:18:54.406Z,97819.91
2022-08-17T10:22:14.927Z,97810.66
2022-08-17T10:25:49.092Z,97820.34
2022-08-17T10:28:54.785Z,97805.53
2022-08-17T10:31:47.723Z,97824.94
2022-08-17T10:35:17.143Z,97812.84
2022-08-17T10:38:25.599Z,97816.28
2022-08-17T10:41:36.882Z,97823.66
2022-08-17T10:44:41.551Z,97812.75
2022-08-17T10:48:04.735Z,97822.56
2022-08-17T10:51:04.141Z,97804.97
2022-08-17T10:54:01.778Z,97815.22
2022-08-17T10:56:54.311Z,97808.00
2022-08-17T10:59:55.122Z,97833.72
2022-08-17T11:02:51.035Z,97824.63
2022-08-17T11:05:54.162Z,97822.06
2022-08-17T11:09:11.350Z,97822.69
2022-08-17T11:12:28.992Z,97819.38
2022-08-17T11:15:31.123Z,97821.84
2022-08-17T11:18:40.833Z,97806.28
2022-08-17T11:21:59.158Z,97808.16
2022-08-17T11:24:52.052Z,97811.63
2022-08-17T11:27:45.963Z,97801.69
2022-08-17T11:30:52.854Z,97793.03
2022-08-17T11:34:00.588Z,97783.75
2022-08-17T11:37:29.195Z,97787.44
2022-08-17T11:40:41.883Z,97807.47
2022-08-17T11:43:57.531Z,97788.66
2022-08-17T11:47:25.771Z,97797.78
2022-08-17T11:50:51.436Z,97798.81
2022-08-17T11:54:32.831Z,97789.72
2022-08-17T11:58:05.509Z,97792.16
2022-08-17T12:01:02.583Z,97798.00
2022-08-17T12:03:59.414Z,97786.78
2022-08-17T12:06:54.902Z,97799.84
2022-08-17T12:09:50.988Z,97796.16
2022-08-17T12:12:44.729Z,97787.69
2022-08-17T12:15:39.873Z,97794.88
2022-08-17T12:18:36.020Z,97786.75
2022-08-17T12:21:44.610Z,97781.78
2022-08-17T12:24:48.897Z,97785.25
2022-08-17T12:28:05.469Z,97781.75
2022-08-17T12:31:04.501Z,97784.06
2022-08-17T12:33:56.808Z,97777.41
2022-08-17T12:36:46.123Z,97790.22
2022-08-17T12:39:35.395Z,97784.28
2022-08-17T12:42:30.591Z,97785.88
2022-08-17T12:45:26.072Z,97779.81
2022-08-17T12:48:23.919Z,97779.41
2022-08-17T12:51:13.960Z,97789.69
2022-08-17T12:54:03.560Z,97782.19
2022-08-17T12:56:52.280Z,97783.91
2022-08-17T12:59:44.095Z,97783.09
2022-08-17T13:02:43.618Z,97788.91
2022-08-17T13:05:35.871Z,97775.88
2022-08-17T13:08:30.986Z,97789.69
2022-08-17T13:11:21.823Z,97787.81
2022-08-17T13:14:11.771Z,97776.16
2022-08-17T13:17:08.563Z,97776.88
2022-08-17T13:20:00.223Z,97773.84
2022-08-17T13:22:54.778Z,97769.88
2022-08-17T13:25:54.868Z,97776.63
2022-08-17T13:28:49.780Z,97777.94
2022-08-17T13:31:52.266Z,97772.81
2022-08-17T13:35:14.123Z,97771.34
2022-08-17T13:38:02.370Z,97763.88
2022-08-17T13:40:54.191Z,97749.97
2022-08-17T13:43:46.109Z,97761.09
2022-08-17T13:46:34.547Z,97758.91
2022-08-17T13:49:23.420Z,97761.66
2022-08-17T13:52:33.027Z,97771.00
2022-08-17T13:55:23.964Z,97772.03
2022-08-17T13:58:21.522Z,97771.94
2022-08-17T14:01:28.791Z,97781.03
2022-08-17T14:04:20.325Z,97782.38
2022-08-17T14:07:28.294Z,97782.06
2022-08-17T14:10:19.334Z,97767.38
2022-08-17T14:13:08.714Z,97771.34
2022-08-17T14:15:58.462Z,97779.41
2022-08-17T14:18:56.230Z,97786.53
2022-08-17T14:21:47.750Z,97763.69
2022-08-17T14:24:44.709Z,97780.06
2022-08-17T14:27:41.848Z,97776.81
2022-08-17T14:30:42.687Z,97775.69
2022-08-17T14:33:32.590Z,97764.69
2022-08-17T14:36:21.032Z,97777.69
2022-08-17T14:39:09.759Z,97771.69
2022-08-17T14:42:02.328Z,97790.34
2022-08-17T14:44:51.109Z,97785.25
2022-08-17T14:47:41.718Z,97774.03
2022-08-17T14:50:32.129Z,97784.69
2022-08-17T14:53:24.123Z,97775.72
2022-08-17T14:56:13.422Z,97780.69
2022-08-17T14:59:01.877Z,97784.16
2022-08-17T15:01:50.469Z,97777.31
2022-08-17T15:04:44.875Z,97773.66
2022-08-17T15:07:35.510Z,97777.56
2022-08-17T15:10:25.864Z,97783.34
2022-08-17T15:13:19.929Z,97769.34
2022-08-17T15:16:09.935Z,97756.50
2022-08-17T15:18:59.048Z,97764.00
2022-08-17T15:21:47.910Z,97767.41
2022-08-17T15:24:37.796Z,97771.09
2022-08-17T15:27:32.417Z,97773.91
2022-08-17T15:30:21.799Z,97776.06
2022-08-17T15:33:14.568Z,97785.47
2022-08-17T15:36:07.625Z,97783.34
2022-08-17T15:38:56.111Z,97776.16
2022-08-17T15:41:47.135Z,97774.47
2022-08-17T15:44:46.529Z,97771.97
2022-08-17T15:47:34.899Z,97779.19
2022-08-17T15:50:23.602Z,97780.38
2022-08-17T15:53:12.594Z,97781.72
2022-08-17T15:56:03.446Z,97788.38
2022-08-17T15:58:54.940Z,97806.63
2022-08-17T16:03:13.027Z,97811.03
2022-08-17T16:04:52.107Z,97809.25
2022-08-17T16:07:41.773Z,97807.53
2022-08-17T16:10:35.033Z,97815.06
2022-08-17T16:13:24.656Z,97810.00
2022-08-17T16:16:15.492Z,97814.75
2022-08-17T16:19:04.245Z,97815.53
2022-08-17T16:21:53.243Z,97816.53
2022-08-17T16:24:56.835Z,97817.19
2022-08-17T16:27:47.069Z,97820.19
2022-08-17T16:30:35.718Z,97823.88
2022-08-17T16:33:25.502Z,97826.06
2022-08-17T16:36:13.966Z,97834.16
2022-08-17T16:39:02.546Z,97831.06
2022-08-17T16:41:51.067Z,97832.28
2022-08-17T16:44:39.396Z,97825.91
2022-08-17T16:47:28.132Z,97831.22
2022-08-17T16:50:20.535Z,97833.69
2022-08-17T16:53:17.620Z,97831.47
2022-08-17T16:56:07.406Z,97831.75
2022-08-17T16:58:56.159Z,97835.75
2022-08-17T17:01:45.140Z,97842.44
2022-08-17T17:04:38.235Z,97844.16
2022-08-17T17:08:09.111Z,97833.88
2022-08-17T17:11:08.933Z,97846.38
2022-08-17T17:14:02.091Z,97847.59
2022-08-17T17:16:59.166Z,97849.78
2022-08-17T17:20:02.064Z,97843.59
2022-08-17T17:23:09.715Z,97841.47
2022-08-17T17:26:36.091Z,97848.22
2022-08-17T17:29:47.378Z,97848.88
2022-08-17T17:32:41.746Z,97843.50
2022-08-17T17:35:35.420Z,97851.44
2022-08-17T17:38:29.250Z,97860.06
2022-08-17T17:41:26.407Z,97853.28
2022-08-17T17:44:19.707Z,97861.75
2022-08-17T17:47:09.994Z,97860.56
2022-08-17T17:50:01.942Z,97865.16
2022-08-17T17:52:59.923Z,97866.47
2022-08-17T17:56:00.694Z,97871.31
2022-08-17T17:58:56.636Z,97871.94
2022-08-17T18:01:55.160Z,97873.63
2022-08-17T18:04:53.642Z,97877.47
2022-08-17T18:07:46.630Z,97886.94
2022-08-17T18:10:49.066Z,97883.19
2022-08-17T18:13:53.488Z,97891.25
2022-08-17T18:16:43.686Z,97889.03
2022-08-17T18:19:33.597Z,97892.88
2022-08-17T18:22:23.536Z,97896.63
2022-08-17T18:25:40.560Z,97895.06
2022-08-17T18:28:32.494Z,97902.28
2022-08-17T18:31:22.468Z,97904.19
2022-08-17T18:34:45.978Z,97898.13
2022-08-17T18:37:41.032Z,97894.03
2022-08-17T18:40:36.273Z,97897.78
2022-08-17T18:43:27.446Z,97906.94
2022-08-17T18:46:30.084Z,97899.03
2022-08-17T18:49:27.965Z,97898.19
2022-08-17T18:52:22.753Z,97899.53
2022-08-17T18:55:15.639Z,97897.66
2022-08-17T18:58:17.683Z,97895.69
2022-08-17T19:01:19.650Z,97901.22
2022-08-17T19:04:14.425Z,97900.09
2022-08-17T19:07:25.829Z,97898.94
2022-08-17T19:10:25.753Z,97904.72
2022-08-17T19:13:23.880Z,97902.16
2022-08-17T19:16:17.859Z,97897.66
2022-08-17T19:19:14.161Z,97903.28
2022-08-17T19:22:13.136Z,97902.81
2022-08-17T19:25:16.119Z,97898.81
2022-08-17T19:28:21.835Z,97903.38
2022-08-17T19:31:18.071Z,97899.19
2022-08-17T19:34:06.639Z,97901.28
2022-08-17T19:36:59.649Z,97902.34
2022-08-17T19:39:56.338Z,97904.22
2022-08-17T19:42:54.193Z,97916.19
2022-08-17T19:45:59.484Z,97922.13
2022-08-17T19:48:57.297Z,97925.66
2022-08-17T19:51:52.185Z,97926.25
2022-08-17T19:54:48.013Z,97932.13
2022-08-17T19:57:46.741Z,97926.84
2022-08-17T20:00:47.641Z,97929.94
2022-08-17T20:03:52.803Z,97922.53
2022-08-17T20:06:45.148Z,97930.94
2022-08-17T20:09:38.054Z,97923.78
2022-08-17T20:12:31.934Z,97915.41
2022-08-17T20:15:28.458Z,97930.94
2022-08-17T20:18:25.327Z,97920.34
2022-08-17T20:21:20.171Z,97929.56
2022-08-17T20:24:21.236Z,97926.41
2022-08-17T20:27:16.456Z,97935.97
2022-08-17T20:30:11.519Z,97943.25
2022-08-17T20:33:04.223Z,97938.78
2022-08-17T20:36:19.027Z,97937.00
2022-08-17T20:39:33.096Z,97928.09
2022-08-17T20:42:34.801Z,97936.72
2022-08-17T20:45:50.158Z,97938.09
2022-08-17T20:48:43.120Z,97939.91
2022-08-17T20:51:39.635Z,97945.84
2022-08-17T20:54:48.010Z,97939.31
2022-08-17T20:57:49.864Z,97936.63
2022-08-17T21:00:47.992Z,97934.25
2022-08-17T21:03:51.896Z,97927.25
2022-08-17T21:07:17.620Z,97925.50
2022-08-17T21:10:14.606Z,97931.28
2022-08-17T21:13:23.958Z,97919.22
2022-08-17T21:16:41.652Z,97916.97
2022-08-17T21:20:00.582Z,97922.47
2022-08-17T21:23:03.036Z,97931.09
2022-08-17T21:26:15.762Z,97924.88
2022-08-17T21:29:31.310Z,97929.56
2022-08-17T21:32:30.628Z,97936.28
2022-08-17T21:35:47.468Z,97953.66
2022-08-17T21:38:39.624Z,97935.78
2022-08-17T21:41:32.925Z,97941.41
2022-08-17T21:44:31.143Z,97937.09
2022-08-17T21:47:24.476Z,97935.72
2022-08-17T21:50:20.702Z,97934.50
2022-08-17T21:53:14.848Z,97927.66
2022-08-17T21:56:04.909Z,97931.22
2022-08-17T21:59:01.871Z,97925.06
2022-08-17T22:01:56.322Z,97919.44
2022-08-17T22:04:58.653Z,97919.31
2022-08-17T22:07:51.652Z,97922.91
2022-08-17T22:10:43.670Z,97916.13
2022-08-17T22:13:33.213Z,97915.53
2022-08-17T22:16:28.367Z,97907.50
2022-08-17T22:19:22.182Z,97904.69
2022-08-17T22:22:25.013Z,97903.88
2022-08-17T22:25:25.216Z,97900.63
2022-08-17T22:28:15.023Z,97896.06
2022-08-17T22:31:06.645Z,97899.03
2022-08-17T22:34:11.536Z,97905.38
2022-08-17T22:37:27.719Z,97895.72
2022-08-17T22:40:29.545Z,97897.50
2022-08-17T22:43:26.431Z,97897.31
2022-08-17T22:46:16.989Z,97909.94
2022-08-17T22:49:08.581Z,97914.97
2022-08-17T22:52:08.834Z,97911.75
2022-08-17T22:55:27.345Z,97908.03
2022-08-17T22:58:37.571Z,97906.22
2022-08-17T23:01:30.235Z,97897.16
2022-08-17T23:04:34.549Z,97898.28
2022-08-17T23:07:24.016Z,97892.00
2022-08-17T23:10:13.176Z,97892.34
2022-08-17T23:13:02.146Z,97884.81
2022-08-17T23:15:52.186Z,97891.78
2022-08-17T23:18:40.669Z,97897.72
2022-08-17T23:21:31.237Z,97907.06
2022-08-17T23:24:28.482Z,97915.53
2022-08-17T23:27:17.181Z,97917.94
2022-08-17T23:30:06.218Z,97915.63
2022-08-17T23:32:56.040Z,97915.78
2022-08-17T23:35:44.802Z,97920.69
2022-08-17T23:38:34.718Z,97910.47
2022-08-17T23:41:26.570Z,97912.56
2022-08-17T23:44:15.876Z,97910.97
2022-08-17T23:47:05.882Z,97906.75
2022-08-17T23:49:54.973Z,97906.75
2022-08-17T23:52:46.712Z,97910.22
2022-08-17T23:55:36.624Z,97920.00
2022-08-17T23:58:25.181Z,97923.22
